sensor_id;sensor_type;location;lat;lon;timestamp;temperature;humidity
67862;DHT22;54665;51.462;6.698;2023-09-18T00:00:58;18.11;99.18
67862;DHT22;54665;51.462;6.698;2023-09-18T00:02:58;18.12;99.16
67862;DHT22;54665;51.462;6.698;2023-09-18T00:04:58;18.11;99.23
67862;DHT22;54665;51.462;6.698;2023-09-18T00:06:59;18.14;99.31
67862;DHT22;54665;51.462;6.698;2023-09-18T00:08:59;18.12;99.29
67862;DHT22;54665;51.462;6.698;2023-09-18T00:11:00;18.17;99.27
67862;DHT22;54665;51.462;6.698;2023-09-18T00:13:00;18.21;99.28
67862;DHT22;54665;51.462;6.698;2023-09-18T00:15:00;18.21;99.28
67862;DHT22;54665;51.462;6.698;2023-09-18T00:17:01;18.19;99.22
67862;DHT22;54665;51.462;6.698;2023-09-18T00:19:01;18.18;99.20
67862;DHT22;54665;51.462;6.698;2023-09-18T00:21:01;18.19;99.23
67862;DHT22;54665;51.462;6.698;2023-09-18T00:23:02;18.19;99.27
67862;DHT22;54665;51.462;6.698;2023-09-18T00:25:02;18.18;99.31
67862;DHT22;54665;51.462;6.698;2023-09-18T00:27:03;18.19;99.30
67862;DHT22;54665;51.462;6.698;2023-09-18T00:29:03;18.15;99.22
67862;DHT22;54665;51.462;6.698;2023-09-18T00:31:03;18.14;99.25
67862;DHT22;54665;51.462;6.698;2023-09-18T00:33:04;18.11;99.30
67862;DHT22;54665;51.462;6.698;2023-09-18T00:35:04;18.08;99.33
67862;DHT22;54665;51.462;6.698;2023-09-18T00:37:05;18.07;99.27
67862;DHT22;54665;51.462;6.698;2023-09-18T00:39:05;18.05;99.35
67862;DHT22;54665;51.462;6.698;2023-09-18T00:41:05;18.05;99.34
67862;DHT22;54665;51.462;6.698;2023-09-18T00:43:06;18.02;99.37
67862;DHT22;54665;51.462;6.698;2023-09-18T00:45:06;18.01;99.36
67862;DHT22;54665;51.462;6.698;2023-09-18T00:47:08;18.01;99.34
67862;DHT22;54665;51.462;6.698;2023-09-18T00:49:09;18.01;99.31
67862;DHT22;54665;51.462;6.698;2023-09-18T00:51:09;18.00;99.36
67862;DHT22;54665;51.462;6.698;2023-09-18T00:53:11;17.97;99.43
67862;DHT22;54665;51.462;6.698;2023-09-18T00:55:13;17.97;99.39
67862;DHT22;54665;51.462;6.698;2023-09-18T00:57:13;18.01;99.38
67862;DHT22;54665;51.462;6.698;2023-09-18T00:59:14;18.08;99.50
67862;DHT22;54665;51.462;6.698;2023-09-18T01:01:16;18.02;99.46
67862;DHT22;54665;51.462;6.698;2023-09-18T01:03:19;18.05;99.49
67862;DHT22;54665;51.462;6.698;2023-09-18T01:05:21;18.01;99.45
67862;DHT22;54665;51.462;6.698;2023-09-18T01:07:21;18.00;99.42
67862;DHT22;54665;51.462;6.698;2023-09-18T01:09:22;17.97;99.40
67862;DHT22;54665;51.462;6.698;2023-09-18T01:11:44;17.98;99.55
67862;DHT22;54665;51.462;6.698;2023-09-18T01:16:39;17.98;99.59
67862;DHT22;54665;51.462;6.698;2023-09-18T01:18:51;17.98;99.51
67862;DHT22;54665;51.462;6.698;2023-09-18T01:20:51;18.00;99.53
67862;DHT22;54665;51.462;6.698;2023-09-18T01:22:51;17.96;99.47
67862;DHT22;54665;51.462;6.698;2023-09-18T01:24:52;17.93;99.50
67862;DHT22;54665;51.462;6.698;2023-09-18T01:26:52;17.96;99.62
67862;DHT22;54665;51.462;6.698;2023-09-18T01:28:52;17.94;99.58
67862;DHT22;54665;51.462;6.698;2023-09-18T01:30:53;17.90;99.53
67862;DHT22;54665;51.462;6.698;2023-09-18T01:32:54;17.97;99.59
67862;DHT22;54665;51.462;6.698;2023-09-18T01:34:57;17.97;99.57
67862;DHT22;54665;51.462;6.698;2023-09-18T01:37:00;17.97;99.54
67862;DHT22;54665;51.462;6.698;2023-09-18T01:39:00;17.96;99.48
67862;DHT22;54665;51.462;6.698;2023-09-18T01:41:01;17.91;99.51
67862;DHT22;54665;51.462;6.698;2023-09-18T01:43:01;17.90;99.50
67862;DHT22;54665;51.462;6.698;2023-09-18T01:45:02;17.86;99.48
67862;DHT22;54665;51.462;6.698;2023-09-18T01:47:04;17.84;99.48
67862;DHT22;54665;51.462;6.698;2023-09-18T01:49:06;17.81;99.45
67862;DHT22;54665;51.462;6.698;2023-09-18T01:51:06;17.83;99.50
67862;DHT22;54665;51.462;6.698;2023-09-18T01:53:06;17.86;99.57
67862;DHT22;54665;51.462;6.698;2023-09-18T01:55:07;17.87;99.51
67862;DHT22;54665;51.462;6.698;2023-09-18T01:57:07;17.88;99.60
67862;DHT22;54665;51.462;6.698;2023-09-18T01:59:08;17.90;99.56
67862;DHT22;54665;51.462;6.698;2023-09-18T02:01:08;17.90;99.48
67862;DHT22;54665;51.462;6.698;2023-09-18T02:03:09;17.91;99.48
67862;DHT22;54665;51.462;6.698;2023-09-18T02:05:09;17.98;99.53
67862;DHT22;54665;51.462;6.698;2023-09-18T02:07:09;18.05;99.52
67862;DHT22;54665;51.462;6.698;2023-09-18T02:09:10;18.11;99.56
67862;DHT22;54665;51.462;6.698;2023-09-18T02:11:10;18.15;99.54
67862;DHT22;54665;51.462;6.698;2023-09-18T02:13:11;18.15;99.51
67862;DHT22;54665;51.462;6.698;2023-09-18T02:15:11;18.18;99.41
67862;DHT22;54665;51.462;6.698;2023-09-18T02:17:11;18.19;99.44
67862;DHT22;54665;51.462;6.698;2023-09-18T02:19:13;18.22;99.43
67862;DHT22;54665;51.462;6.698;2023-09-18T02:21:20;18.27;99.39
67862;DHT22;54665;51.462;6.698;2023-09-18T02:23:20;18.29;99.31
67862;DHT22;54665;51.462;6.698;2023-09-18T02:25:21;18.31;99.36
67862;DHT22;54665;51.462;6.698;2023-09-18T02:27:21;18.35;99.38
67862;DHT22;54665;51.462;6.698;2023-09-18T02:29:21;18.39;99.36
67862;DHT22;54665;51.462;6.698;2023-09-18T02:31:22;18.42;99.38
67862;DHT22;54665;51.462;6.698;2023-09-18T02:33:22;18.45;99.21
67862;DHT22;54665;51.462;6.698;2023-09-18T02:35:22;18.45;99.29
67862;DHT22;54665;51.462;6.698;2023-09-18T02:37:23;18.42;99.27
67862;DHT22;54665;51.462;6.698;2023-09-18T02:39:23;18.42;99.19
67862;DHT22;54665;51.462;6.698;2023-09-18T02:41:24;18.39;99.24
67862;DHT22;54665;51.462;6.698;2023-09-18T02:43:25;18.37;99.26
67862;DHT22;54665;51.462;6.698;2023-09-18T02:45:26;18.38;99.29
67862;DHT22;54665;51.462;6.698;2023-09-18T02:47:26;18.39;99.06
67862;DHT22;54665;51.462;6.698;2023-09-18T02:49:26;18.37;99.12
67862;DHT22;54665;51.462;6.698;2023-09-18T02:51:27;18.35;99.14
67862;DHT22;54665;51.462;6.698;2023-09-18T02:53:28;18.35;99.18
67862;DHT22;54665;51.462;6.698;2023-09-18T02:55:30;18.34;99.21
67862;DHT22;54665;51.462;6.698;2023-09-18T02:57:31;18.32;99.20
67862;DHT22;54665;51.462;6.698;2023-09-18T02:59:31;18.35;99.24
67862;DHT22;54665;51.462;6.698;2023-09-18T03:01:31;18.39;99.20
67862;DHT22;54665;51.462;6.698;2023-09-18T03:03:33;18.47;99.21
67862;DHT22;54665;51.462;6.698;2023-09-18T03:05:33;18.51;99.21
67862;DHT22;54665;51.462;6.698;2023-09-18T03:07:34;18.56;98.93
67862;DHT22;54665;51.462;6.698;2023-09-18T03:09:34;18.56;98.70
67862;DHT22;54665;51.462;6.698;2023-09-18T03:11:35;18.55;98.76
67862;DHT22;54665;51.462;6.698;2023-09-18T03:13:35;18.56;98.17
67862;DHT22;54665;51.462;6.698;2023-09-18T03:15:36;18.62;98.41
67862;DHT22;54665;51.462;6.698;2023-09-18T03:17:36;18.66;98.18
67862;DHT22;54665;51.462;6.698;2023-09-18T03:19:37;18.80;96.47
67862;DHT22;54665;51.462;6.698;2023-09-18T03:21:37;18.88;95.47
67862;DHT22;54665;51.462;6.698;2023-09-18T03:23:38;18.90;95.46
67862;DHT22;54665;51.462;6.698;2023-09-18T03:25:38;19.03;95.13
67862;DHT22;54665;51.462;6.698;2023-09-18T03:27:38;19.07;95.32
67862;DHT22;54665;51.462;6.698;2023-09-18T03:29:40;19.07;94.74
67862;DHT22;54665;51.462;6.698;2023-09-18T03:31:41;19.20;93.91
67862;DHT22;54665;51.462;6.698;2023-09-18T03:33:41;19.20;93.98
67862;DHT22;54665;51.462;6.698;2023-09-18T03:35:46;19.24;93.82
67862;DHT22;54665;51.462;6.698;2023-09-18T03:37:49;19.24;93.85
67862;DHT22;54665;51.462;6.698;2023-09-18T03:39:49;19.30;93.35
67862;DHT22;54665;51.462;6.698;2023-09-18T03:41:50;19.38;92.91
67862;DHT22;54665;51.462;6.698;2023-09-18T03:43:51;19.43;92.98
67862;DHT22;54665;51.462;6.698;2023-09-18T03:45:51;19.54;91.99
67862;DHT22;54665;51.462;6.698;2023-09-18T03:47:52;19.64;92.17
67862;DHT22;54665;51.462;6.698;2023-09-18T03:49:53;19.74;91.18
67862;DHT22;54665;51.462;6.698;2023-09-18T03:51:53;19.83;90.83
67862;DHT22;54665;51.462;6.698;2023-09-18T03:53:53;19.83;90.68
67862;DHT22;54665;51.462;6.698;2023-09-18T03:55:54;19.74;91.64
67862;DHT22;54665;51.462;6.698;2023-09-18T03:57:54;19.70;92.37
67862;DHT22;54665;51.462;6.698;2023-09-18T03:59:54;19.64;92.41
67862;DHT22;54665;51.462;6.698;2023-09-18T04:01:54;19.54;92.85
67862;DHT22;54665;51.462;6.698;2023-09-18T04:03:55;19.48;93.02
67862;DHT22;54665;51.462;6.698;2023-09-18T04:05:55;19.44;93.06
67862;DHT22;54665;51.462;6.698;2023-09-18T04:07:55;19.48;92.80
67862;DHT22;54665;51.462;6.698;2023-09-18T04:09:56;19.48;93.02
67862;DHT22;54665;51.462;6.698;2023-09-18T04:11:56;19.46;93.06
67862;DHT22;54665;51.462;6.698;2023-09-18T04:13:56;19.44;93.48
67862;DHT22;54665;51.462;6.698;2023-09-18T04:15:57;19.43;93.76
67862;DHT22;54665;51.462;6.698;2023-09-18T04:17:57;19.43;93.75
67862;DHT22;54665;51.462;6.698;2023-09-18T04:19:58;19.43;93.33
67862;DHT22;54665;51.462;6.698;2023-09-18T04:21:58;19.43;93.24
67862;DHT22;54665;51.462;6.698;2023-09-18T04:23:58;19.47;92.99
67862;DHT22;54665;51.462;6.698;2023-09-18T04:25:59;19.50;92.71
67862;DHT22;54665;51.462;6.698;2023-09-18T04:28:01;19.54;92.89
67862;DHT22;54665;51.462;6.698;2023-09-18T04:30:01;19.55;92.64
67862;DHT22;54665;51.462;6.698;2023-09-18T04:32:03;19.60;91.58
67862;DHT22;54665;51.462;6.698;2023-09-18T04:34:03;19.62;92.01
67862;DHT22;54665;51.462;6.698;2023-09-18T04:36:04;19.71;91.11
67862;DHT22;54665;51.462;6.698;2023-09-18T04:38:06;19.71;91.55
67862;DHT22;54665;51.462;6.698;2023-09-18T04:40:07;19.71;91.40
67862;DHT22;54665;51.462;6.698;2023-09-18T04:42:08;19.79;91.15
67862;DHT22;54665;51.462;6.698;2023-09-18T04:44:08;19.82;91.09
67862;DHT22;54665;51.462;6.698;2023-09-18T04:46:09;19.91;90.84
67862;DHT22;54665;51.462;6.698;2023-09-18T04:48:10;19.82;90.88
67862;DHT22;54665;51.462;6.698;2023-09-18T04:50:11;19.82;90.88
67862;DHT22;54665;51.462;6.698;2023-09-18T04:52:11;19.71;91.46
67862;DHT22;54665;51.462;6.698;2023-09-18T04:54:12;19.68;91.21
67862;DHT22;54665;51.462;6.698;2023-09-18T04:56:12;19.70;91.31
67862;DHT22;54665;51.462;6.698;2023-09-18T04:58:12;19.67;91.41
67862;DHT22;54665;51.462;6.698;2023-09-18T05:00:13;19.68;91.27
67862;DHT22;54665;51.462;6.698;2023-09-18T05:02:14;19.74;91.27
67862;DHT22;54665;51.462;6.698;2023-09-18T05:04:14;19.78;90.82
67862;DHT22;54665;51.462;6.698;2023-09-18T05:06:15;19.72;91.29
67862;DHT22;54665;51.462;6.698;2023-09-18T05:08:15;19.68;91.45
67862;DHT22;54665;51.462;6.698;2023-09-18T05:10:16;19.65;91.49
67862;DHT22;54665;51.462;6.698;2023-09-18T05:12:16;19.65;91.74
67862;DHT22;54665;51.462;6.698;2023-09-18T05:14:16;19.64;91.21
67862;DHT22;54665;51.462;6.698;2023-09-18T05:16:17;19.72;90.95
67862;DHT22;54665;51.462;6.698;2023-09-18T05:18:17;19.65;91.15
67862;DHT22;54665;51.462;6.698;2023-09-18T05:20:18;19.61;90.95
67862;DHT22;54665;51.462;6.698;2023-09-18T05:22:18;19.58;90.93
67862;DHT22;54665;51.462;6.698;2023-09-18T05:24:18;19.53;91.11
67862;DHT22;54665;51.462;6.698;2023-09-18T05:26:19;19.55;91.23
67862;DHT22;54665;51.462;6.698;2023-09-18T05:28:19;19.53;91.32
67862;DHT22;54665;51.462;6.698;2023-09-18T05:30:25;19.54;91.21
67862;DHT22;54665;51.462;6.698;2023-09-18T05:32:26;19.57;90.93
67862;DHT22;54665;51.462;6.698;2023-09-18T05:34:26;19.64;90.91
67862;DHT22;54665;51.462;6.698;2023-09-18T05:36:26;19.71;90.88
67862;DHT22;54665;51.462;6.698;2023-09-18T05:38:27;19.82;89.91
67862;DHT22;54665;51.462;6.698;2023-09-18T05:40:27;19.89;90.08
67862;DHT22;54665;51.462;6.698;2023-09-18T05:42:27;19.92;90.02
67862;DHT22;54665;51.462;6.698;2023-09-18T05:44:27;19.91;89.58
67862;DHT22;54665;51.462;6.698;2023-09-18T05:46:28;19.82;89.95
67862;DHT22;54665;51.462;6.698;2023-09-18T05:48:28;19.79;89.93
67862;DHT22;54665;51.462;6.698;2023-09-18T05:50:29;19.79;90.05
67862;DHT22;54665;51.462;6.698;2023-09-18T05:52:30;19.78;90.01
67862;DHT22;54665;51.462;6.698;2023-09-18T05:54:30;19.81;89.83
67862;DHT22;54665;51.462;6.698;2023-09-18T05:56:31;19.82;90.13
67862;DHT22;54665;51.462;6.698;2023-09-18T05:58:31;19.88;90.13
67862;DHT22;54665;51.462;6.698;2023-09-18T06:00:32;19.95;89.75
67862;DHT22;54665;51.462;6.698;2023-09-18T06:02:33;19.95;90.10
67862;DHT22;54665;51.462;6.698;2023-09-18T06:04:33;20.01;89.85
67862;DHT22;54665;51.462;6.698;2023-09-18T06:06:33;20.04;89.91
67862;DHT22;54665;51.462;6.698;2023-09-18T06:08:34;20.05;90.29
67862;DHT22;54665;51.462;6.698;2023-09-18T06:10:34;20.05;90.23
67862;DHT22;54665;51.462;6.698;2023-09-18T06:12:34;20.08;90.25
67862;DHT22;54665;51.462;6.698;2023-09-18T06:14:35;20.06;90.39
67862;DHT22;54665;51.462;6.698;2023-09-18T06:16:35;20.09;89.95
67862;DHT22;54665;51.462;6.698;2023-09-18T06:18:35;20.11;89.61
67862;DHT22;54665;51.462;6.698;2023-09-18T06:20:35;20.11;89.76
67862;DHT22;54665;51.462;6.698;2023-09-18T06:22:40;20.12;89.97
67862;DHT22;54665;51.462;6.698;2023-09-18T06:24:42;20.12;90.21
67862;DHT22;54665;51.462;6.698;2023-09-18T06:26:42;20.12;90.01
67862;DHT22;54665;51.462;6.698;2023-09-18T06:28:43;20.13;89.75
67862;DHT22;54665;51.462;6.698;2023-09-18T06:30:43;20.15;89.87
67862;DHT22;54665;51.462;6.698;2023-09-18T06:32:43;20.13;90.34
67862;DHT22;54665;51.462;6.698;2023-09-18T06:34:44;20.18;90.13
67862;DHT22;54665;51.462;6.698;2023-09-18T06:36:44;20.19;89.90
67862;DHT22;54665;51.462;6.698;2023-09-18T06:38:44;20.22;90.03
67862;DHT22;54665;51.462;6.698;2023-09-18T06:40:45;20.25;89.49
67862;DHT22;54665;51.462;6.698;2023-09-18T06:42:45;20.22;89.29
67862;DHT22;54665;51.462;6.698;2023-09-18T06:44:46;20.29;89.37
67862;DHT22;54665;51.462;6.698;2023-09-18T06:46:46;20.28;89.39
67862;DHT22;54665;51.462;6.698;2023-09-18T06:48:47;20.32;88.66
67862;DHT22;54665;51.462;6.698;2023-09-18T06:50:47;20.40;89.13
67862;DHT22;54665;51.462;6.698;2023-09-18T06:52:47;20.43;88.39
67862;DHT22;54665;51.462;6.698;2023-09-18T06:54:47;20.49;88.83
67862;DHT22;54665;51.462;6.698;2023-09-18T06:56:48;20.50;88.74
67862;DHT22;54665;51.462;6.698;2023-09-18T06:58:48;20.52;87.66
67862;DHT22;54665;51.462;6.698;2023-09-18T07:00:48;20.64;87.64
67862;DHT22;54665;51.462;6.698;2023-09-18T07:02:48;20.71;87.78
67862;DHT22;54665;51.462;6.698;2023-09-18T07:04:49;20.74;87.51
67862;DHT22;54665;51.462;6.698;2023-09-18T07:06:49;20.84;87.58
67862;DHT22;54665;51.462;6.698;2023-09-18T07:08:49;20.85;86.99
67862;DHT22;54665;51.462;6.698;2023-09-18T07:10:50;20.90;87.13
67862;DHT22;54665;51.462;6.698;2023-09-18T07:12:50;20.93;87.77
67862;DHT22;54665;51.462;6.698;2023-09-18T07:14:51;21.00;86.66
67862;DHT22;54665;51.462;6.698;2023-09-18T07:16:51;20.98;85.58
67862;DHT22;54665;51.462;6.698;2023-09-18T07:18:51;21.04;86.63
67862;DHT22;54665;51.462;6.698;2023-09-18T07:20:52;21.14;86.19
67862;DHT22;54665;51.462;6.698;2023-09-18T07:22:52;21.17;85.65
67862;DHT22;54665;51.462;6.698;2023-09-18T07:24:52;21.28;86.04
67862;DHT22;54665;51.462;6.698;2023-09-18T07:26:52;21.25;85.41
67862;DHT22;54665;51.462;6.698;2023-09-18T07:28:53;21.22;85.76
67862;DHT22;54665;51.462;6.698;2023-09-18T07:30:53;21.20;85.31
67862;DHT22;54665;51.462;6.698;2023-09-18T07:32:57;21.21;86.02
67862;DHT22;54665;51.462;6.698;2023-09-18T07:34:57;21.22;86.46
67862;DHT22;54665;51.462;6.698;2023-09-18T07:36:57;21.28;85.26
67862;DHT22;54665;51.462;6.698;2023-09-18T07:38:58;21.38;85.12
67862;DHT22;54665;51.462;6.698;2023-09-18T07:40:58;21.51;84.76
67862;DHT22;54665;51.462;6.698;2023-09-18T07:42:58;21.49;85.14
67862;DHT22;54665;51.462;6.698;2023-09-18T07:44:59;21.58;84.07
67862;DHT22;54665;51.462;6.698;2023-09-18T07:46:59;21.48;84.28
67862;DHT22;54665;51.462;6.698;2023-09-18T07:48:59;21.45;84.02
67862;DHT22;54665;51.462;6.698;2023-09-18T07:51:00;21.49;84.23
67862;DHT22;54665;51.462;6.698;2023-09-18T07:53:01;21.53;84.29
67862;DHT22;54665;51.462;6.698;2023-09-18T07:55:01;21.62;84.27
67862;DHT22;54665;51.462;6.698;2023-09-18T07:57:02;21.62;83.60
67862;DHT22;54665;51.462;6.698;2023-09-18T07:59:02;21.63;83.47
67862;DHT22;54665;51.462;6.698;2023-09-18T08:01:02;21.61;82.77
67862;DHT22;54665;51.462;6.698;2023-09-18T08:03:03;21.69;82.33
67862;DHT22;54665;51.462;6.698;2023-09-18T08:05:03;21.85;81.35
67862;DHT22;54665;51.462;6.698;2023-09-18T08:07:04;21.81;81.45
67862;DHT22;54665;51.462;6.698;2023-09-18T08:09:04;21.81;81.58
67862;DHT22;54665;51.462;6.698;2023-09-18T08:11:08;21.82;81.58
67862;DHT22;54665;51.462;6.698;2023-09-18T08:13:08;21.96;81.62
67862;DHT22;54665;51.462;6.698;2023-09-18T08:15:09;21.90;81.34
67862;DHT22;54665;51.462;6.698;2023-09-18T08:17:09;21.76;81.50
67862;DHT22;54665;51.462;6.698;2023-09-18T08:19:10;21.63;82.39
67862;DHT22;54665;51.462;6.698;2023-09-18T08:21:10;21.67;81.31
67862;DHT22;54665;51.462;6.698;2023-09-18T08:23:11;21.93;81.75
67862;DHT22;54665;51.462;6.698;2023-09-18T08:25:11;22.10;81.23
67862;DHT22;54665;51.462;6.698;2023-09-18T08:27:16;22.23;81.44
67862;DHT22;54665;51.462;6.698;2023-09-18T08:29:16;22.40;79.77
67862;DHT22;54665;51.462;6.698;2023-09-18T08:31:17;22.37;80.78
67862;DHT22;54665;51.462;6.698;2023-09-18T08:33:17;22.34;79.93
67862;DHT22;54665;51.462;6.698;2023-09-18T08:35:18;22.54;79.51
67862;DHT22;54665;51.462;6.698;2023-09-18T08:37:18;22.64;79.23
67862;DHT22;54665;51.462;6.698;2023-09-18T08:39:18;22.47;78.53
67862;DHT22;54665;51.462;6.698;2023-09-18T08:41:19;22.43;79.58
67862;DHT22;54665;51.462;6.698;2023-09-18T08:43:21;22.16;78.78
67862;DHT22;54665;51.462;6.698;2023-09-18T08:45:28;22.21;79.33
67862;DHT22;54665;51.462;6.698;2023-09-18T08:47:31;21.94;79.44
67862;DHT22;54665;51.462;6.698;2023-09-18T08:49:32;22.09;79.80
67862;DHT22;54665;51.462;6.698;2023-09-18T08:51:34;22.25;79.34
67862;DHT22;54665;51.462;6.698;2023-09-18T08:53:36;22.25;79.75
67862;DHT22;54665;51.462;6.698;2023-09-18T08:55:36;22.36;78.34
67862;DHT22;54665;51.462;6.698;2023-09-18T08:57:38;22.55;77.66
67862;DHT22;54665;51.462;6.698;2023-09-18T08:59:39;22.64;76.97
67862;DHT22;54665;51.462;6.698;2023-09-18T09:01:40;22.67;77.33
67862;DHT22;54665;51.462;6.698;2023-09-18T09:03:41;22.74;77.25
67862;DHT22;54665;51.462;6.698;2023-09-18T09:05:42;22.81;76.68
67862;DHT22;54665;51.462;6.698;2023-09-18T09:07:42;22.91;77.69
67862;DHT22;54665;51.462;6.698;2023-09-18T09:09:43;22.79;77.40
67862;DHT22;54665;51.462;6.698;2023-09-18T09:11:49;22.68;77.24
67862;DHT22;54665;51.462;6.698;2023-09-18T09:14:10;22.71;75.37
67862;DHT22;54665;51.462;6.698;2023-09-18T09:16:12;22.79;76.26
67862;DHT22;54665;51.462;6.698;2023-09-18T09:18:14;23.08;76.25
67862;DHT22;54665;51.462;6.698;2023-09-18T09:20:15;23.16;75.17
67862;DHT22;54665;51.462;6.698;2023-09-18T09:22:20;22.99;75.38
67862;DHT22;54665;51.462;6.698;2023-09-18T09:24:42;23.33;74.91
67862;DHT22;54665;51.462;6.698;2023-09-18T09:26:43;23.62;74.56
67862;DHT22;54665;51.462;6.698;2023-09-18T09:28:44;23.25;74.33
67862;DHT22;54665;51.462;6.698;2023-09-18T09:30:44;23.13;74.55
67862;DHT22;54665;51.462;6.698;2023-09-18T09:32:47;23.04;76.19
67862;DHT22;54665;51.462;6.698;2023-09-18T09:34:48;23.30;74.81
67862;DHT22;54665;51.462;6.698;2023-09-18T09:36:53;23.50;74.11
67862;DHT22;54665;51.462;6.698;2023-09-18T09:38:57;23.52;74.74
67862;DHT22;54665;51.462;6.698;2023-09-18T09:40:58;23.76;73.66
67862;DHT22;54665;51.462;6.698;2023-09-18T09:42:58;23.39;73.19
67862;DHT22;54665;51.462;6.698;2023-09-18T09:45:02;23.56;74.41
67862;DHT22;54665;51.462;6.698;2023-09-18T09:47:05;23.60;73.15
67862;DHT22;54665;51.462;6.698;2023-09-18T09:49:06;23.69;73.93
67862;DHT22;54665;51.462;6.698;2023-09-18T09:51:06;23.62;74.51
67862;DHT22;54665;51.462;6.698;2023-09-18T09:53:07;23.33;73.62
67862;DHT22;54665;51.462;6.698;2023-09-18T09:55:31;23.36;74.45
67862;DHT22;54665;51.462;6.698;2023-09-18T09:57:46;23.41;75.18
67862;DHT22;54665;51.462;6.698;2023-09-18T09:59:46;23.30;73.77
67862;DHT22;54665;51.462;6.698;2023-09-18T10:01:47;23.29;73.38
67862;DHT22;54665;51.462;6.698;2023-09-18T10:03:48;23.52;73.86
67862;DHT22;54665;51.462;6.698;2023-09-18T10:05:51;23.22;73.48
67862;DHT22;54665;51.462;6.698;2023-09-18T10:07:52;23.11;74.04
67862;DHT22;54665;51.462;6.698;2023-09-18T10:09:54;23.26;74.94
67862;DHT22;54665;51.462;6.698;2023-09-18T10:11:56;23.13;75.40
67862;DHT22;54665;51.462;6.698;2023-09-18T10:14:07;23.25;74.50
67862;DHT22;54665;51.462;6.698;2023-09-18T10:16:09;23.23;72.75
67862;DHT22;54665;51.462;6.698;2023-09-18T10:18:18;23.30;74.06
67862;DHT22;54665;51.462;6.698;2023-09-18T10:20:23;23.27;74.11
67862;DHT22;54665;51.462;6.698;2023-09-18T10:22:37;23.64;74.38
67862;DHT22;54665;51.462;6.698;2023-09-18T10:24:39;24.01;72.83
67862;DHT22;54665;51.462;6.698;2023-09-18T10:26:48;23.92;73.42
67862;DHT22;54665;51.462;6.698;2023-09-18T10:28:52;23.96;72.75
67862;DHT22;54665;51.462;6.698;2023-09-18T10:30:56;23.74;73.31
67862;DHT22;54665;51.462;6.698;2023-09-18T10:32:57;24.18;72.50
67862;DHT22;54665;51.462;6.698;2023-09-18T10:34:57;24.11;70.95
67862;DHT22;54665;51.462;6.698;2023-09-18T10:36:59;24.32;70.64
67862;DHT22;54665;51.462;6.698;2023-09-18T10:39:01;24.28;71.55
67862;DHT22;54665;51.462;6.698;2023-09-18T10:41:01;24.14;70.94
67862;DHT22;54665;51.462;6.698;2023-09-18T10:43:04;23.97;71.65
67862;DHT22;54665;51.462;6.698;2023-09-18T10:45:06;24.18;72.81
67862;DHT22;54665;51.462;6.698;2023-09-18T10:47:10;24.14;71.32
67862;DHT22;54665;51.462;6.698;2023-09-18T10:49:11;24.15;71.02
67862;DHT22;54665;51.462;6.698;2023-09-18T10:51:11;24.24;71.78
67862;DHT22;54665;51.462;6.698;2023-09-18T10:53:12;24.04;70.32
67862;DHT22;54665;51.462;6.698;2023-09-18T10:55:13;24.47;72.25
67862;DHT22;54665;51.462;6.698;2023-09-18T10:57:14;25.23;71.00
67862;DHT22;54665;51.462;6.698;2023-09-18T10:59:15;25.06;68.77
67862;DHT22;54665;51.462;6.698;2023-09-18T11:01:17;24.93;70.32
67862;DHT22;54665;51.462;6.698;2023-09-18T11:03:18;25.31;69.00
67862;DHT22;54665;51.462;6.698;2023-09-18T11:05:32;25.34;68.12
67862;DHT22;54665;51.462;6.698;2023-09-18T11:07:32;25.56;69.03
67862;DHT22;54665;51.462;6.698;2023-09-18T11:09:44;25.71;67.33
67862;DHT22;54665;51.462;6.698;2023-09-18T11:11:44;25.28;67.58
67862;DHT22;54665;51.462;6.698;2023-09-18T11:13:46;25.66;65.75
67862;DHT22;54665;51.462;6.698;2023-09-18T11:15:48;25.58;64.84
67862;DHT22;54665;51.462;6.698;2023-09-18T11:17:58;25.91;66.89
67862;DHT22;54665;51.462;6.698;2023-09-18T11:20:18;25.77;66.96
67862;DHT22;54665;51.462;6.698;2023-09-18T11:22:18;26.14;65.22
67862;DHT22;54665;51.462;6.698;2023-09-18T11:24:22;25.57;64.54
67862;DHT22;54665;51.462;6.698;2023-09-18T11:26:22;25.73;66.38
67862;DHT22;54665;51.462;6.698;2023-09-18T11:28:26;25.34;66.14
67862;DHT22;54665;51.462;6.698;2023-09-18T11:30:29;25.58;66.18
67862;DHT22;54665;51.462;6.698;2023-09-18T11:32:39;25.73;66.56
67862;DHT22;54665;51.462;6.698;2023-09-18T11:34:39;25.68;66.47
67862;DHT22;54665;51.462;6.698;2023-09-18T11:36:40;25.47;67.07
67862;DHT22;54665;51.462;6.698;2023-09-18T11:39:00;25.34;66.34
67862;DHT22;54665;51.462;6.698;2023-09-18T11:41:19;25.37;66.68
67862;DHT22;54665;51.462;6.698;2023-09-18T11:43:26;24.92;66.99
67862;DHT22;54665;51.462;6.698;2023-09-18T11:45:26;24.87;68.70
67862;DHT22;54665;51.462;6.698;2023-09-18T11:47:27;25.07;68.88
67862;DHT22;54665;51.462;6.698;2023-09-18T11:49:27;25.66;68.06
67862;DHT22;54665;51.462;6.698;2023-09-18T11:51:28;25.67;67.71
67862;DHT22;54665;51.462;6.698;2023-09-18T11:53:29;26.02;67.15
67862;DHT22;54665;51.462;6.698;2023-09-18T11:55:29;25.97;66.27
67862;DHT22;54665;51.462;6.698;2023-09-18T11:57:35;26.22;66.33
67862;DHT22;54665;51.462;6.698;2023-09-18T11:59:40;26.31;63.48
67862;DHT22;54665;51.462;6.698;2023-09-18T12:01:40;26.38;64.77
67862;DHT22;54665;51.462;6.698;2023-09-18T12:03:41;25.57;63.91
67862;DHT22;54665;51.462;6.698;2023-09-18T12:05:42;25.02;64.54
67862;DHT22;54665;51.462;6.698;2023-09-18T12:07:44;24.92;67.55
67862;DHT22;54665;51.462;6.698;2023-09-18T12:09:44;25.22;66.49
67862;DHT22;54665;51.462;6.698;2023-09-18T12:11:45;25.51;64.99
67862;DHT22;54665;51.462;6.698;2023-09-18T12:13:47;26.14;64.88
67862;DHT22;54665;51.462;6.698;2023-09-18T12:15:49;26.11;62.49
67862;DHT22;54665;51.462;6.698;2023-09-18T12:17:55;25.63;63.59
67862;DHT22;54665;51.462;6.698;2023-09-18T12:19:55;25.82;62.89
67862;DHT22;54665;51.462;6.698;2023-09-18T12:21:56;26.01;62.44
67862;DHT22;54665;51.462;6.698;2023-09-18T12:23:56;26.05;64.24
67862;DHT22;54665;51.462;6.698;2023-09-18T12:25:59;25.81;63.53
67862;DHT22;54665;51.462;6.698;2023-09-18T12:28:00;26.19;62.62
67862;DHT22;54665;51.462;6.698;2023-09-18T12:30:02;26.25;61.93
67862;DHT22;54665;51.462;6.698;2023-09-18T12:32:03;26.18;61.76
67862;DHT22;54665;51.462;6.698;2023-09-18T12:34:03;26.31;60.94
67862;DHT22;54665;51.462;6.698;2023-09-18T12:36:04;26.36;61.77
67862;DHT22;54665;51.462;6.698;2023-09-18T12:38:14;26.43;61.14
67862;DHT22;54665;51.462;6.698;2023-09-18T12:40:28;26.26;58.74
67862;DHT22;54665;51.462;6.698;2023-09-18T12:42:29;26.91;57.47
67862;DHT22;54665;51.462;6.698;2023-09-18T12:44:30;26.31;59.07
67862;DHT22;54665;51.462;6.698;2023-09-18T12:46:31;26.09;60.78
67862;DHT22;54665;51.462;6.698;2023-09-18T12:48:31;26.29;59.19
67862;DHT22;54665;51.462;6.698;2023-09-18T12:50:32;25.74;60.02